createdAt,value
2022-09-16T00:00:13.469Z,0
2022-09-16T00:01:15.038Z,0
2022-09-16T00:02:15.591Z,0
2022-09-16T00:03:15.526Z,0
2022-09-16T00:04:15.412Z,0
2022-09-16T00:05:16.605Z,0
2022-09-16T00:06:16.218Z,0
2022-09-16T00:07:16.859Z,0
2022-09-16T00:08:18.362Z,0
2022-09-16T00:09:18.272Z,0
2022-09-16T00:10:18.123Z,0
2022-09-16T00:11:19.622Z,0
2022-09-16T00:12:18.960Z,0
2022-09-16T00:13:20.250Z,0
2022-09-16T00:14:20.166Z,0
2022-09-16T00:15:21.376Z,0
2022-09-16T00:16:21.374Z,0
2022-09-16T00:17:22.001Z,0
2022-09-16T00:18:23.524Z,0
2022-09-16T00:19:22.601Z,0
2022-09-16T00:20:23.914Z,0
2022-09-16T00:21:23.544Z,0
2022-09-16T00:22:23.911Z,0
2022-09-16T00:23:25.136Z,0
2022-09-16T00:24:25.080Z,0
2022-09-16T00:25:25.967Z,0
2022-09-16T00:26:26.891Z,0
2022-09-16T00:27:27.502Z,0
2022-09-16T00:28:28.142Z,0
2022-09-16T00:29:29.354Z,0
2022-09-16T00:30:29.040Z,0
2022-09-16T00:31:30.303Z,0
2022-09-16T00:32:31.237Z,0
2022-09-16T00:33:31.155Z,0
2022-09-16T00:34:32.648Z,0
2022-09-16T00:35:31.953Z,0
2022-09-16T00:36:32.585Z,0
2022-09-16T00:37:33.251Z,0
2022-09-16T00:38:34.763Z,0
2022-09-16T00:39:34.400Z,0
2022-09-16T00:40:35.452Z,0
2022-09-16T00:41:35.683Z,0
2022-09-16T00:42:35.289Z,0
2022-09-16T00:43:36.189Z,0
2022-09-16T00:44:36.539Z,0
2022-09-16T00:45:37.727Z,0
2022-09-16T00:46:38.015Z,0
2022-09-16T00:47:38.204Z,0
2022-09-16T00:48:38.539Z,0
2022-09-16T00:49:38.868Z,0
2022-09-16T00:50:39.577Z,0
2022-09-16T00:51:39.788Z,0
2022-09-16T00:52:40.006Z,0
2022-09-16T00:53:43.554Z,0
2022-09-16T00:54:40.167Z,0
2022-09-16T00:55:41.656Z,0
2022-09-16T00:56:41.853Z,0
2022-09-16T00:57:42.190Z,0
2022-09-16T00:58:42.826Z,0
2022-09-16T00:59:43.441Z,0
2022-09-16T01:00:44.738Z,0
2022-09-16T01:01:45.071Z,0
2022-09-16T01:02:44.483Z,0
2022-09-16T01:03:45.394Z,0
2022-09-16T01:04:46.023Z,0
2022-09-16T01:05:47.237Z,0
2022-09-16T01:06:47.434Z,0
2022-09-16T01:07:47.358Z,0
2022-09-16T01:08:49.006Z,0
2022-09-16T01:09:48.635Z,0
2022-09-16T01:10:49.921Z,0
2022-09-16T01:11:50.125Z,0
2022-09-16T01:12:50.754Z,0
2022-09-16T01:13:51.093Z,0
2022-09-16T01:14:51.693Z,0
2022-09-16T01:15:52.466Z,0
2022-09-16T01:16:53.361Z,0
2022-09-16T01:17:53.670Z,0
2022-09-16T01:18:54.585Z,0
2022-09-16T01:19:55.490Z,0
2022-09-16T01:20:56.220Z,0
2022-09-16T01:21:56.841Z,0
2022-09-16T01:22:57.780Z,0
2022-09-16T01:23:59.046Z,0
2022-09-16T01:24:59.249Z,0
2022-09-16T01:26:00.158Z,0
2022-09-16T01:27:00.366Z,0
2022-09-16T01:28:00.259Z,0
2022-09-16T01:29:01.237Z,0
2022-09-16T01:30:01.858Z,0
2022-09-16T01:31:02.406Z,0
2022-09-16T01:32:03.350Z,0
2022-09-16T01:33:04.541Z,0
2022-09-16T01:34:05.455Z,0
2022-09-16T01:35:06.064Z,0
2022-09-16T01:36:06.997Z,0
2022-09-16T01:37:07.938Z,0
2022-09-16T01:38:08.879Z,0
2022-09-16T01:39:09.161Z,0
2022-09-16T01:40:10.192Z,0
2022-09-16T01:41:10.231Z,0
2022-09-16T01:42:10.427Z,0
2022-09-16T01:43:10.610Z,0
2022-09-16T01:44:10.524Z,0
2022-09-16T01:45:11.199Z,0
2022-09-16T01:46:11.923Z,0
2022-09-16T01:47:12.657Z,0
2022-09-16T01:48:13.261Z,0
2022-09-16T01:49:13.895Z,0
2022-09-16T01:50:14.538Z,0
2022-09-16T01:51:14.375Z,0
2022-09-16T01:52:15.588Z,0
2022-09-16T01:53:15.246Z,0
2022-09-16T01:54:16.474Z,0
2022-09-16T01:55:16.358Z,0
2022-09-16T01:56:17.558Z,0
2022-09-16T01:57:18.223Z,0
2022-09-16T01:58:18.563Z,0
2022-09-16T01:59:19.478Z,0
2022-09-16T02:00:20.388Z,0
2022-09-16T02:01:21.504Z,0
2022-09-16T02:02:22.883Z,0
2022-09-16T02:03:22.586Z,0
2022-09-16T02:04:23.774Z,0
2022-09-16T02:05:24.110Z,0
2022-09-16T02:06:24.703Z,0
2022-09-16T02:07:25.647Z,0
2022-09-16T02:08:26.310Z,0
2022-09-16T02:09:27.518Z,0
2022-09-16T02:10:28.149Z,0
2022-09-16T02:11:28.537Z,0
2022-09-16T02:12:30.181Z,0
2022-09-16T02:13:30.516Z,0
2022-09-16T02:14:30.953Z,0
2022-09-16T02:15:31.870Z,0
2022-09-16T02:16:33.295Z,0
2022-09-16T02:17:32.334Z,0
2022-09-16T02:18:33.263Z,0
2022-09-16T02:19:34.154Z,0
2022-09-16T02:20:34.484Z,0
2022-09-16T02:21:35.200Z,0
2022-09-16T02:22:36.121Z,0
2022-09-16T02:23:36.635Z,0
2022-09-16T02:24:36.554Z,0
2022-09-16T02:25:37.162Z,0
2022-09-16T02:26:38.350Z,0
2022-09-16T02:27:38.248Z,0
2022-09-16T02:28:38.873Z,0
2022-09-16T02:29:39.213Z,0
2022-09-16T02:30:40.118Z,0
2022-09-16T02:31:41.936Z,0
2022-09-16T02:32:41.280Z,0
2022-09-16T02:33:42.170Z,0
2022-09-16T02:34:42.825Z,0
2022-09-16T02:35:44.015Z,0
2022-09-16T02:36:43.607Z,0
2022-09-16T02:37:44.251Z,0
2022-09-16T02:38:44.904Z,0
2022-09-16T02:39:46.229Z,0
2022-09-16T02:40:47.227Z,0
2022-09-16T02:41:47.967Z,0
2022-09-16T02:42:48.892Z,0
2022-09-16T02:43:49.076Z,0
2022-09-16T02:44:49.713Z,0
2022-09-16T02:45:50.032Z,0
2022-09-16T02:46:51.203Z,0
2022-09-16T02:47:52.416Z,0
2022-09-16T02:48:52.608Z,0
2022-09-16T02:49:53.097Z,0
2022-09-16T02:50:53.311Z,0
2022-09-16T02:51:53.422Z,0
2022-09-16T02:52:55.665Z,0
2022-09-16T02:53:55.958Z,0
2022-09-16T02:54:55.881Z,0
2022-09-16T02:55:56.490Z,0
2022-09-16T02:56:56.832Z,0
2022-09-16T02:57:57.483Z,0
2022-09-16T02:58:58.410Z,0
2022-09-16T02:59:59.622Z,0
2022-09-16T03:00:59.526Z,0
2022-09-16T03:02:00.289Z,0
2022-09-16T03:03:00.899Z,0
2022-09-16T03:04:00.819Z,0
2022-09-16T03:05:00.412Z,0
2022-09-16T03:06:01.303Z,0
2022-09-16T03:07:02.212Z,0
2022-09-16T03:08:03.439Z,0
2022-09-16T03:09:03.133Z,0
2022-09-16T03:10:04.326Z,0
2022-09-16T03:11:03.922Z,0
2022-09-16T03:12:04.640Z,0
2022-09-16T03:13:05.556Z,0
2022-09-16T03:14:06.597Z,0
2022-09-16T03:15:06.591Z,0
2022-09-16T03:16:08.088Z,0
2022-09-16T03:17:08.298Z,0
2022-09-16T03:18:08.786Z,0
2022-09-16T03:19:08.105Z,0
2022-09-16T03:20:09.324Z,0
2022-09-16T03:21:08.947Z,0
2022-09-16T03:22:09.954Z,0
2022-09-16T03:23:10.885Z,0
2022-09-16T03:24:11.159Z,0
2022-09-16T03:25:11.082Z,0
2022-09-16T03:26:12.559Z,0
2022-09-16T03:27:12.472Z,0
2022-09-16T03:28:12.377Z,0
2022-09-16T03:29:13.292Z,0
2022-09-16T03:30:12.916Z,0
2022-09-16T03:31:13.982Z,0
2022-09-16T03:32:14.419Z,0
2022-09-16T03:33:15.641Z,0
2022-09-16T03:34:15.544Z,0
2022-09-16T03:35:16.162Z,0
2022-09-16T03:36:17.076Z,0
2022-09-16T03:37:17.990Z,0
2022-09-16T03:38:18.615Z,0
2022-09-16T03:39:20.126Z,0
2022-09-16T03:40:20.417Z,0
2022-09-16T03:41:19.754Z,0
2022-09-16T03:42:20.744Z,0
2022-09-16T03:43:21.694Z,0
2022-09-16T03:44:21.645Z,0
2022-09-16T03:45:22.839Z,0
2022-09-16T03:46:22.720Z,0
2022-09-16T03:47:23.312Z,0
2022-09-16T03:48:24.526Z,0
2022-09-16T03:49:24.431Z,0
2022-09-16T03:50:25.640Z,0
2022-09-16T03:51:25.553Z,0
2022-09-16T03:52:26.814Z,0
2022-09-16T03:53:26.725Z,0
2022-09-16T03:54:27.661Z,0
2022-09-16T03:55:27.877Z,0
2022-09-16T03:56:28.218Z,0
2022-09-16T03:57:28.527Z,0
2022-09-16T03:58:30.749Z,0
2022-09-16T03:59:30.667Z,0
2022-09-16T04:00:31.301Z,0
2022-09-16T04:01:32.586Z,0
2022-09-16T04:02:32.638Z,0
2022-09-16T04:03:38.310Z,0
2022-09-16T04:04:34.197Z,0
2022-09-16T04:05:35.383Z,0
2022-09-16T04:06:35.577Z,0
2022-09-16T04:07:35.486Z,0
2022-09-16T04:08:36.421Z,0
2022-09-16T04:09:37.659Z,0
2022-09-16T04:10:37.886Z,0
2022-09-16T04:11:37.497Z,0
2022-09-16T04:12:38.372Z,0
2022-09-16T04:13:39.592Z,0
2022-09-16T04:14:39.501Z,0
2022-09-16T04:15:40.523Z,0
2022-09-16T04:16:44.943Z,0
2022-09-16T04:17:41.846Z,0
2022-09-16T04:18:43.046Z,0
2022-09-16T04:19:43.716Z,0
2022-09-16T04:20:44.325Z,0
2022-09-16T04:21:45.244Z,0
2022-09-16T04:22:45.257Z,0
2022-09-16T04:23:46.157Z,0
2022-09-16T04:24:46.775Z,0
2022-09-16T04:25:47.977Z,0
2022-09-16T04:26:48.185Z,0
2022-09-16T04:27:47.798Z,0
2022-09-16T04:28:48.736Z,0
2022-09-16T04:29:48.644Z,0
2022-09-16T04:30:49.161Z,0
2022-09-16T04:31:50.096Z,0
2022-09-16T04:32:50.511Z,0
2022-09-16T04:33:51.425Z,0
2022-09-16T04:34:52.057Z,0
2022-09-16T04:35:52.946Z,0
2022-09-16T04:36:54.431Z,0
2022-09-16T04:37:53.748Z,0
2022-09-16T04:38:54.923Z,0
2022-09-16T04:39:54.713Z,0
2022-09-16T04:40:55.923Z,0
2022-09-16T04:41:56.264Z,0
2022-09-16T04:42:57.302Z,0
2022-09-16T04:43:57.212Z,0
2022-09-16T04:44:57.525Z,0
2022-09-16T04:45:59.395Z,0
2022-09-16T04:47:00.671Z,0
2022-09-16T04:48:00.585Z,0
2022-09-16T04:49:01.481Z,0
2022-09-16T04:50:02.397Z,0
2022-09-16T04:51:03.309Z,0
2022-09-16T04:52:03.201Z,0
2022-09-16T04:53:03.611Z,0
2022-09-16T04:54:05.329Z,0
2022-09-16T04:55:08.539Z,0
2022-09-16T04:56:05.735Z,0
2022-09-16T04:57:06.955Z,0
2022-09-16T04:58:06.547Z,0
2022-09-16T04:59:07.620Z,0
2022-09-16T05:00:07.540Z,0
2022-09-16T05:01:08.517Z,0
2022-09-16T05:02:09.111Z,0
2022-09-16T05:03:09.888Z,0
2022-09-16T05:04:10.518Z,0
2022-09-16T05:05:11.146Z,0
2022-09-16T05:06:11.778Z,0
2022-09-16T05:07:12.389Z,0
2022-09-16T05:08:13.018Z,0
2022-09-16T05:09:13.349Z,0
2022-09-16T05:10:13.980Z,0
2022-09-16T05:11:15.174Z,0
2022-09-16T05:12:15.126Z,0
2022-09-16T05:13:15.502Z,0
2022-09-16T05:14:16.544Z,0
2022-09-16T05:15:17.377Z,0
2022-09-16T05:16:18.001Z,0
2022-09-16T05:17:50.684Z,0
2022-09-16T05:18:19.091Z,0
2022-09-16T05:19:19.284Z,0
2022-09-16T05:20:19.630Z,0
2022-09-16T05:21:20.829Z,0
2022-09-16T05:22:21.164Z,0
2022-09-16T05:23:22.471Z,0
2022-09-16T05:24:23.765Z,0
2022-09-16T05:25:24.819Z,0
2022-09-16T05:26:25.511Z,0
2022-09-16T05:27:25.428Z,0
2022-09-16T05:28:26.632Z,0
2022-09-16T05:29:26.668Z,0
2022-09-16T05:30:31.551Z,0
2022-09-16T05:31:27.983Z,0
2022-09-16T05:32:27.596Z,0
2022-09-16T05:33:29.158Z,0
2022-09-16T05:34:29.377Z,0
2022-09-16T05:35:29.311Z,0
2022-09-16T05:36:29.792Z,0
2022-09-16T05:37:30.278Z,0
2022-09-16T05:38:29.872Z,0
2022-09-16T05:39:46.914Z,0
2022-09-16T05:40:30.754Z,0
2022-09-16T05:41:32.465Z,0
2022-09-16T05:42:32.950Z,0
2022-09-16T05:43:33.179Z,0
2022-09-16T05:44:34.224Z,0
2022-09-16T05:45:43.384Z,0
2022-09-16T05:46:34.822Z,0
2022-09-16T05:47:34.417Z,0
2022-09-16T05:48:35.326Z,0
2022-09-16T05:49:35.660Z,0
2022-09-16T05:50:36.566Z,0
2022-09-16T05:51:37.098Z,0
2022-09-16T05:52:36.737Z,5.63
2022-09-16T05:53:37.998Z,5.63
2022-09-16T05:54:38.330Z,5.63
2022-09-16T05:55:39.782Z,5.63
2022-09-16T05:56:40.420Z,0
2022-09-16T05:57:40.037Z,5.63
2022-09-16T05:58:40.952Z,5.63
2022-09-16T05:59:41.979Z,5.63
2022-09-16T06:00:42.171Z,5.63
2022-09-16T06:01:42.559Z,11.25
2022-09-16T06:02:43.355Z,11.25
2022-09-16T06:03:42.598Z,16.88
2022-09-16T06:04:43.811Z,16.88
2022-09-16T06:05:48.020Z,16.88
2022-09-16T06:06:45.266Z,16.88
2022-09-16T06:07:44.600Z,16.88
2022-09-16T06:08:45.491Z,16.88
2022-09-16T06:09:46.107Z,16.88
2022-09-16T06:10:47.522Z,16.88
2022-09-16T06:11:47.627Z,16.88
2022-09-16T06:12:47.523Z,16.88
2022-09-16T06:13:47.938Z,11.25
2022-09-16T06:14:48.990Z,11.25
2022-09-16T06:15:49.404Z,11.25
2022-09-16T06:16:49.488Z,16.88
2022-09-16T06:17:50.402Z,16.88
2022-09-16T06:18:51.603Z,16.88
2022-09-16T06:19:52.087Z,16.88
2022-09-16T06:20:51.727Z,16.88
2022-09-16T06:21:52.357Z,16.88
2022-09-16T06:22:52.671Z,16.88
2022-09-16T06:23:54.170Z,16.88
2022-09-16T06:24:54.091Z,16.88
2022-09-16T06:25:55.223Z,16.88
2022-09-16T06:26:55.370Z,16.88
2022-09-16T06:27:55.988Z,16.88
2022-09-16T06:28:57.207Z,16.88
2022-09-16T06:29:57.946Z,16.88
2022-09-16T06:30:59.077Z,16.88
2022-09-16T06:31:59.285Z,16.88
2022-09-16T06:32:59.184Z,16.88
2022-09-16T06:34:00.381Z,16.88
2022-09-16T06:35:00.871Z,16.88
2022-09-16T06:36:01.135Z,16.88
2022-09-16T06:37:02.342Z,16.88
2022-09-16T06:38:01.268Z,16.88
2022-09-16T06:39:02.758Z,16.88
2022-09-16T06:40:02.602Z,16.88
2022-09-16T06:41:03.783Z,16.88
2022-09-16T06:42:04.286Z,16.88
2022-09-16T06:43:10.499Z,22.5
2022-09-16T06:44:04.410Z,16.88
2022-09-16T06:45:05.710Z,16.88
2022-09-16T06:46:06.201Z,22.5
2022-09-16T06:47:06.292Z,22.5
2022-09-16T06:48:07.494Z,28.13
2022-09-16T06:49:15.122Z,28.13
2022-09-16T06:50:08.613Z,28.13
2022-09-16T06:51:08.506Z,28.13
2022-09-16T06:52:09.499Z,28.13
2022-09-16T06:53:10.439Z,22.5
2022-09-16T06:54:11.986Z,22.5
2022-09-16T06:55:12.178Z,22.5
2022-09-16T06:56:13.035Z,22.5
2022-09-16T06:57:17.604Z,22.5
2022-09-16T06:58:13.501Z,22.5
2022-09-16T06:59:14.512Z,22.5
2022-09-16T07:00:15.816Z,22.5
2022-09-16T07:01:16.772Z,22.5
2022-09-16T07:02:18.021Z,28.13
2022-09-16T07:03:17.627Z,28.13
2022-09-16T07:04:18.351Z,33.75
2022-09-16T07:05:18.262Z,33.75
2022-09-16T07:06:19.513Z,33.75
2022-09-16T07:07:26.039Z,33.75
2022-09-16T07:08:20.527Z,33.75
2022-09-16T07:09:20.756Z,33.75
2022-09-16T07:10:20.373Z,33.75
2022-09-16T07:11:21.811Z,33.75
2022-09-16T07:12:26.101Z,39.38
2022-09-16T07:13:22.299Z,33.75
2022-09-16T07:14:22.420Z,28.13
2022-09-16T07:15:24.027Z,28.13
2022-09-16T07:16:30.181Z,28.13
2022-09-16T07:17:24.137Z,28.13
2022-09-16T07:18:25.047Z,28.13
2022-09-16T07:19:25.980Z,28.13
2022-09-16T07:20:26.625Z,28.13
2022-09-16T07:21:27.856Z,28.13
2022-09-16T07:22:29.058Z,33.75
2022-09-16T07:23:29.256Z,33.75
2022-09-16T07:24:29.751Z,39.38
2022-09-16T07:25:35.531Z,33.75
2022-09-16T07:26:31.837Z,28.13
2022-09-16T07:27:31.963Z,28.13
2022-09-16T07:28:31.932Z,28.13
2022-09-16T07:29:32.904Z,33.75
2022-09-16T07:30:34.462Z,39.38
2022-09-16T07:31:35.148Z,39.38
2022-09-16T07:32:35.064Z,39.38
2022-09-16T07:33:34.996Z,39.38
2022-09-16T07:34:36.283Z,45
2022-09-16T07:35:36.778Z,45
2022-09-16T07:36:36.721Z,45
2022-09-16T07:37:41.995Z,45
2022-09-16T07:38:39.009Z,45
2022-09-16T07:39:38.359Z,45
2022-09-16T07:40:43.191Z,50.63
2022-09-16T07:41:40.637Z,50.63
2022-09-16T07:42:40.881Z,50.63
2022-09-16T07:43:40.808Z,50.63
2022-09-16T07:44:40.716Z,50.63
2022-09-16T07:45:41.668Z,50.63
2022-09-16T07:46:41.870Z,50.63
2022-09-16T07:47:42.087Z,50.63
2022-09-16T07:48:46.218Z,73.13
2022-09-16T07:49:42.783Z,67.5
2022-09-16T07:50:42.680Z,56.25
2022-09-16T07:51:43.311Z,50.63
2022-09-16T07:53:46.355Z,56.25
2022-09-16T07:54:45.480Z,73.13
2022-09-16T07:55:46.676Z,56.25
2022-09-16T07:56:47.163Z,56.25
2022-09-16T07:57:47.856Z,56.25
2022-09-16T07:58:47.771Z,45
2022-09-16T07:59:48.681Z,45
2022-09-16T08:00:49.275Z,45
2022-09-16T08:01:55.371Z,45
2022-09-16T08:02:50.448Z,56.25
2022-09-16T08:03:51.019Z,50.63
2022-09-16T08:04:51.532Z,50.63
2022-09-16T08:05:51.728Z,50.63
2022-09-16T08:06:52.664Z,56.25
2022-09-16T08:07:53.312Z,56.25
2022-09-16T08:08:54.646Z,61.88
2022-09-16T08:10:05.164Z,73.13
2022-09-16T08:10:57.502Z,78.75
2022-09-16T08:11:57.240Z,73.13
2022-09-16T08:12:57.709Z,61.88
2022-09-16T08:13:57.854Z,84.38
2022-09-16T08:14:58.896Z,61.88
2022-09-16T08:15:59.496Z,84.38
2022-09-16T08:16:59.808Z,84.38
2022-09-16T08:17:59.830Z,90
2022-09-16T08:19:00.495Z,101.25
2022-09-16T08:20:01.132Z,106.88
2022-09-16T08:21:02.643Z,118.13
2022-09-16T08:22:02.846Z,118.13
2022-09-16T08:23:08.797Z,123.75
2022-09-16T08:24:03.731Z,112.5
2022-09-16T08:25:03.951Z,129.38
2022-09-16T08:26:03.858Z,123.75
2022-09-16T08:27:05.093Z,129.38
2022-09-16T08:28:09.241Z,90
2022-09-16T08:29:25.506Z,61.88
2022-09-16T08:30:05.703Z,67.5
2022-09-16T08:31:10.159Z,90
2022-09-16T08:32:06.430Z,112.5
2022-09-16T08:33:06.351Z,123.75
2022-09-16T08:34:07.275Z,146.25
2022-09-16T08:35:07.915Z,129.38
2022-09-16T08:36:09.131Z,84.38
2022-09-16T08:37:09.048Z,95.63
2022-09-16T08:38:09.666Z,95.63
2022-09-16T08:39:11.328Z,78.75
2022-09-16T08:40:11.882Z,56.25
2022-09-16T08:41:12.433Z,45
2022-09-16T08:42:12.256Z,50.63
2022-09-16T08:43:13.668Z,50.63
2022-09-16T08:44:14.161Z,67.5
2022-09-16T08:45:14.674Z,61.88
2022-09-16T08:46:15.114Z,50.63
2022-09-16T08:47:14.517Z,50.63
2022-09-16T08:48:15.498Z,50.63
2022-09-16T08:49:16.616Z,56.25
2022-09-16T08:50:17.143Z,67.5
2022-09-16T08:51:17.083Z,95.63
2022-09-16T08:52:17.145Z,90
2022-09-16T08:53:18.346Z,101.25
2022-09-16T08:54:18.546Z,95.63
2022-09-16T08:55:18.711Z,84.38
2022-09-16T08:56:19.076Z,95.63
2022-09-16T08:57:20.623Z,67.5
2022-09-16T08:58:21.382Z,112.5
2022-09-16T08:59:21.592Z,118.13
2022-09-16T09:00:22.569Z,129.38
2022-09-16T09:01:23.604Z,129.38
2022-09-16T09:02:28.600Z,129.38
2022-09-16T09:03:24.582Z,129.38
2022-09-16T09:04:24.526Z,123.75
2022-09-16T09:05:25.057Z,112.5
2022-09-16T09:06:24.957Z,101.25
2022-09-16T09:07:25.575Z,101.25
2022-09-16T09:08:26.784Z,101.25
2022-09-16T09:09:26.408Z,95.63
2022-09-16T09:10:27.388Z,90
2022-09-16T09:11:28.607Z,84.38
2022-09-16T09:12:35.319Z,84.38
2022-09-16T09:13:51.176Z,78.75
2022-09-16T09:14:30.662Z,73.13
2022-09-16T09:15:38.704Z,73.13
2022-09-16T09:16:32.465Z,67.5
2022-09-16T09:17:36.976Z,56.25
2022-09-16T09:18:32.941Z,56.25
2022-09-16T09:19:33.833Z,50.63
2022-09-16T09:20:34.452Z,50.63
2022-09-16T09:21:38.786Z,50.63
2022-09-16T09:22:36.000Z,39.38
2022-09-16T09:23:36.245Z,39.38
2022-09-16T09:24:35.859Z,39.38
2022-09-16T09:25:37.395Z,33.75
2022-09-16T09:26:37.316Z,33.75
2022-09-16T09:27:38.361Z,39.38
2022-09-16T09:28:40.222Z,33.75
2022-09-16T09:29:39.560Z,33.75
2022-09-16T09:30:41.176Z,39.38
2022-09-16T09:31:42.367Z,50.63
2022-09-16T09:33:00.429Z,50.63
2022-09-16T09:34:05.494Z,50.63
2022-09-16T09:34:47.856Z,50.63
2022-09-16T09:35:43.874Z,50.63
2022-09-16T09:36:43.816Z,50.63
2022-09-16T09:37:43.713Z,61.88
2022-09-16T09:38:44.907Z,73.13
2022-09-16T09:39:44.854Z,78.75
2022-09-16T09:40:46.076Z,78.75
2022-09-16T09:41:46.266Z,78.75
2022-09-16T09:42:46.598Z,84.38
2022-09-16T09:43:47.698Z,84.38
2022-09-16T09:44:47.299Z,90
2022-09-16T09:45:49.063Z,95.63
2022-09-16T09:46:49.226Z,106.88
2022-09-16T09:47:48.845Z,106.88
2022-09-16T09:48:50.109Z,106.88
2022-09-16T09:49:49.737Z,118.13
2022-09-16T09:50:50.943Z,123.75
2022-09-16T09:51:52.161Z,123.75
2022-09-16T09:52:52.659Z,129.38
2022-09-16T09:53:52.362Z,129.38
2022-09-16T09:54:53.568Z,135
2022-09-16T09:55:54.294Z,129.38
2022-09-16T09:56:55.212Z,123.75
2022-09-16T09:57:56.831Z,118.13
2022-09-16T09:58:57.679Z,129.38
2022-09-16T09:59:57.878Z,140.63
2022-09-16T10:00:58.948Z,129.38
2022-09-16T10:01:59.112Z,101.25
2022-09-16T10:03:05.404Z,101.25
2022-09-16T10:03:59.299Z,106.88
2022-09-16T10:05:00.484Z,101.25
2022-09-16T10:06:01.303Z,90
2022-09-16T10:08:01.675Z,78.75
2022-09-16T10:09:02.598Z,73.13
2022-09-16T10:10:02.838Z,67.5
2022-09-16T10:11:03.051Z,61.88
2022-09-16T10:12:03.988Z,56.25
2022-09-16T10:13:05.043Z,61.88
2022-09-16T10:14:05.930Z,73.13
2022-09-16T10:15:05.522Z,73.13
2022-09-16T10:16:11.384Z,78.75
2022-09-16T10:17:08.023Z,78.75
2022-09-16T10:18:08.216Z,78.75
2022-09-16T10:19:08.241Z,73.13
2022-09-16T10:20:09.171Z,73.13
2022-09-16T10:21:10.427Z,78.75
2022-09-16T10:22:10.036Z,78.75
2022-09-16T10:23:11.232Z,78.75
2022-09-16T10:24:11.151Z,78.75
2022-09-16T10:25:11.767Z,56.25
2022-09-16T10:26:12.012Z,28.13
2022-09-16T10:27:12.626Z,28.13
2022-09-16T10:28:13.973Z,33.75
2022-09-16T10:29:14.579Z,33.75
2022-09-16T10:30:14.620Z,39.38
2022-09-16T10:31:16.354Z,45
2022-09-16T10:32:16.960Z,50.63
2022-09-16T10:33:17.452Z,50.63
2022-09-16T10:34:17.114Z,50.63
2022-09-16T10:35:18.331Z,50.63
2022-09-16T10:36:19.349Z,45
2022-09-16T10:37:19.991Z,56.25
2022-09-16T10:38:20.635Z,90
2022-09-16T10:39:22.203Z,95.63
2022-09-16T10:40:23.037Z,84.38
2022-09-16T10:41:22.980Z,95.63
2022-09-16T10:42:23.923Z,84.38
2022-09-16T10:43:24.256Z,56.25
2022-09-16T10:44:28.543Z,50.63
2022-09-16T10:45:24.479Z,61.88
2022-09-16T10:46:25.491Z,658.13
2022-09-16T10:47:25.527Z,95.63
2022-09-16T10:48:26.723Z,596.25
2022-09-16T10:49:26.625Z,731.25
2022-09-16T10:50:27.846Z,798.75
2022-09-16T10:51:29.065Z,585
2022-09-16T10:52:29.394Z,123.75
2022-09-16T10:53:29.669Z,298.13
2022-09-16T10:54:30.600Z,793.13
2022-09-16T10:55:31.524Z,770.63
2022-09-16T10:56:32.184Z,663.75
2022-09-16T10:57:31.797Z,151.88
2022-09-16T10:58:33.360Z,174.38
2022-09-16T10:59:33.906Z,264.38
2022-09-16T11:00:33.605Z,466.88
2022-09-16T11:01:43.747Z,112.5
2022-09-16T11:02:35.688Z,101.25
2022-09-16T11:03:36.623Z,123.75
2022-09-16T11:04:37.570Z,95.63
2022-09-16T11:05:41.843Z,90
2022-09-16T11:06:38.774Z,95.63
2022-09-16T11:07:39.265Z,90
2022-09-16T11:08:39.481Z,112.5
2022-09-16T11:09:39.132Z,84.38
2022-09-16T11:10:40.352Z,90
2022-09-16T11:11:40.802Z,101.25
2022-09-16T11:12:41.921Z,106.88
2022-09-16T11:13:41.975Z,78.75
2022-09-16T11:14:43.506Z,73.13
2022-09-16T11:15:43.136Z,78.75
2022-09-16T11:16:44.564Z,90
2022-09-16T11:17:44.914Z,101.25
2022-09-16T11:18:48.116Z,112.5
2022-09-16T11:19:46.716Z,112.5
2022-09-16T11:20:47.258Z,129.38
2022-09-16T11:21:46.904Z,123.75
2022-09-16T11:22:47.795Z,129.38
2022-09-16T11:23:49.045Z,129.38
2022-09-16T11:24:49.236Z,129.38
2022-09-16T11:25:49.140Z,135
2022-09-16T11:26:50.125Z,151.88
2022-09-16T11:27:50.757Z,174.38
2022-09-16T11:28:52.100Z,157.5
2022-09-16T11:29:52.976Z,84.38
2022-09-16T11:30:52.938Z,129.38
2022-09-16T11:31:53.210Z,146.25
2022-09-16T11:32:56.641Z,213.75
2022-09-16T11:33:54.826Z,123.75
2022-09-16T11:34:54.730Z,129.38
2022-09-16T11:35:55.650Z,157.5
2022-09-16T11:36:56.074Z,112.5
2022-09-16T11:37:56.970Z,140.63
2022-09-16T11:39:02.500Z,168.75
2022-09-16T11:39:58.896Z,140.63
2022-09-16T11:40:59.237Z,135
2022-09-16T11:41:59.732Z,129.38
2022-09-16T11:42:59.061Z,151.88
2022-09-16T11:44:00.452Z,84.38
2022-09-16T11:45:01.452Z,101.25
2022-09-16T11:46:01.670Z,112.5
2022-09-16T11:47:02.110Z,174.38
2022-09-16T11:48:02.722Z,118.13
2022-09-16T11:49:02.938Z,95.63
2022-09-16T11:50:03.170Z,101.25
2022-09-16T11:51:03.066Z,90
2022-09-16T11:52:03.982Z,118.13
2022-09-16T11:53:12.288Z,101.25
2022-09-16T11:54:07.253Z,90
2022-09-16T11:55:06.185Z,163.13
2022-09-16T11:56:07.093Z,140.63
2022-09-16T11:57:09.772Z,123.75
2022-09-16T11:58:08.866Z,106.88
2022-09-16T11:59:09.989Z,95.63
2022-09-16T12:00:10.927Z,95.63
2022-09-16T12:01:11.519Z,146.25
2022-09-16T12:02:12.076Z,371.25
2022-09-16T12:03:12.982Z,191.25
2022-09-16T12:04:13.222Z,123.75
2022-09-16T12:05:13.138Z,461.25
2022-09-16T12:06:14.631Z,455.63
2022-09-16T12:07:14.970Z,365.63
2022-09-16T12:08:16.206Z,450
2022-09-16T12:09:21.491Z,433.13
2022-09-16T12:10:17.113Z,90
2022-09-16T12:11:18.049Z,84.38
2022-09-16T12:12:18.552Z,191.25
2022-09-16T12:13:18.155Z,343.13
2022-09-16T12:14:22.656Z,438.75
2022-09-16T12:15:23.143Z,90
2022-09-16T12:16:20.370Z,84.38
2022-09-16T12:17:21.097Z,101.25
2022-09-16T12:18:22.490Z,84.38
2022-09-16T12:19:22.690Z,90
2022-09-16T12:20:22.716Z,112.5
2022-09-16T12:21:23.935Z,241.88
2022-09-16T12:22:25.158Z,90
2022-09-16T12:23:25.072Z,112.5
2022-09-16T12:24:26.356Z,67.5
2022-09-16T12:25:25.986Z,67.5
2022-09-16T12:26:27.196Z,67.5
2022-09-16T12:27:27.557Z,73.13
2022-09-16T12:28:27.779Z,67.5
2022-09-16T12:29:27.877Z,241.88
2022-09-16T12:30:29.752Z,196.88
2022-09-16T12:31:35.319Z,61.88
2022-09-16T12:32:30.580Z,50.63
2022-09-16T12:33:31.928Z,39.38
2022-09-16T12:34:31.844Z,28.13
2022-09-16T12:35:32.997Z,28.13
2022-09-16T12:36:37.244Z,22.5
2022-09-16T12:37:33.400Z,5.63
2022-09-16T12:38:34.314Z,0
2022-09-16T12:39:35.249Z,5.63
2022-09-16T12:40:35.791Z,5.63
2022-09-16T12:41:35.764Z,5.63
2022-09-16T12:42:36.099Z,5.63
2022-09-16T12:43:37.295Z,5.63
2022-09-16T12:44:51.116Z,5.63
2022-09-16T12:45:38.954Z,5.63
2022-09-16T12:46:38.295Z,5.63
2022-09-16T12:47:39.588Z,5.63
2022-09-16T12:48:40.648Z,5.63
2022-09-16T12:49:40.997Z,0
2022-09-16T12:50:41.940Z,0
2022-09-16T12:51:44.167Z,0
2022-09-16T12:52:42.846Z,0
2022-09-16T12:53:43.530Z,0
2022-09-16T12:55:18.225Z,5.63
2022-09-16T12:55:44.857Z,5.63
2022-09-16T12:56:45.165Z,11.25
2022-09-16T12:57:45.318Z,16.88
2022-09-16T12:58:46.555Z,22.5
2022-09-16T12:59:46.746Z,22.5
2022-09-16T13:00:47.750Z,28.13
2022-09-16T13:01:48.755Z,33.75
2022-09-16T13:02:49.381Z,39.38
2022-09-16T13:03:50.042Z,45
2022-09-16T13:04:49.937Z,45
2022-09-16T13:05:50.326Z,45
2022-09-16T13:06:51.569Z,39.38
2022-09-16T13:07:52.139Z,28.13
2022-09-16T13:08:53.351Z,28.13
2022-09-16T13:09:53.566Z,28.13
2022-09-16T13:12:49.368Z,22.5
2022-09-16T13:13:06.569Z,22.5
2022-09-16T13:14:07.194Z,22.5
2022-09-16T13:15:08.395Z,22.5
2022-09-16T13:16:09.765Z,22.5
2022-09-16T13:17:08.411Z,28.13
2022-09-16T13:18:09.630Z,28.13
2022-09-16T13:19:10.326Z,28.13
2022-09-16T13:20:10.524Z,33.75
2022-09-16T13:21:11.615Z,39.38
2022-09-16T13:22:11.517Z,39.38
2022-09-16T13:23:12.417Z,39.38
2022-09-16T13:24:13.347Z,28.13
2022-09-16T13:25:17.774Z,22.5
2022-09-16T13:26:14.398Z,22.5
2022-09-16T13:27:15.309Z,16.88
2022-09-16T13:28:15.931Z,11.25
2022-09-16T13:29:17.237Z,11.25
2022-09-16T13:30:17.425Z,11.25
2022-09-16T13:31:19.112Z,5.63
2022-09-16T13:32:19.312Z,5.63
2022-09-16T13:33:18.983Z,5.63
2022-09-16T13:34:20.023Z,5.63
2022-09-16T13:35:20.521Z,5.63
2022-09-16T13:36:20.435Z,5.63
2022-09-16T13:37:20.623Z,5.63
2022-09-16T13:38:20.542Z,11.25
2022-09-16T13:39:21.834Z,11.25
2022-09-16T13:40:22.347Z,16.88
2022-09-16T13:41:21.998Z,22.5
2022-09-16T13:42:22.921Z,22.5
2022-09-16T13:43:23.263Z,16.88
2022-09-16T13:44:24.508Z,16.88
2022-09-16T13:45:28.350Z,16.88
2022-09-16T13:46:28.800Z,16.88
2022-09-16T13:47:26.719Z,16.88
2022-09-16T13:48:27.896Z,16.88
2022-09-16T13:49:28.301Z,16.88
2022-09-16T13:50:28.496Z,16.88
2022-09-16T13:51:30.074Z,16.88
2022-09-16T13:52:28.354Z,11.25